sensor_id;sensor_type;location;lat;lon;timestamp;P1;durP1;ratioP1;P2;durP2;ratioP2
62832;SDS011;48891;49.220;6.920;2023-12-22T00:00:20;28.58;;;21.65;;
62832;SDS011;48891;49.220;6.920;2023-12-22T00:02:45;26.13;;;20.88;;
62832;SDS011;48891;49.220;6.920;2023-12-22T00:05:10;28.95;;;21.70;;
62832;SDS011;48891;49.220;6.920;2023-12-22T00:07:35;25.73;;;20.10;;
62832;SDS011;48891;49.220;6.920;2023-12-22T00:10:01;26.73;;;19.83;;
62832;SDS011;48891;49.220;6.920;2023-12-22T00:12:26;26.10;;;20.38;;
62832;SDS011;48891;49.220;6.920;2023-12-22T00:14:51;31.13;;;22.23;;
62832;SDS011;48891;49.220;6.920;2023-12-22T00:17:16;26.70;;;21.17;;
62832;SDS011;48891;49.220;6.920;2023-12-22T00:19:42;28.27;;;21.02;;
62832;SDS011;48891;49.220;6.920;2023-12-22T00:22:07;29.45;;;22.13;;
62832;SDS011;48891;49.220;6.920;2023-12-22T00:24:32;28.60;;;20.98;;
62832;SDS011;48891;49.220;6.920;2023-12-22T00:26:57;28.33;;;21.20;;
62832;SDS011;48891;49.220;6.920;2023-12-22T00:29:22;27.63;;;21.55;;
62832;SDS011;48891;49.220;6.920;2023-12-22T00:31:48;25.70;;;20.83;;
62832;SDS011;48891;49.220;6.920;2023-12-22T00:34:13;30.88;;;22.52;;
62832;SDS011;48891;49.220;6.920;2023-12-22T00:36:38;28.00;;;21.08;;
62832;SDS011;48891;49.220;6.920;2023-12-22T00:39:03;29.10;;;21.90;;
62832;SDS011;48891;49.220;6.920;2023-12-22T00:41:29;27.75;;;21.58;;
62832;SDS011;48891;49.220;6.920;2023-12-22T00:43:54;26.58;;;20.23;;
62832;SDS011;48891;49.220;6.920;2023-12-22T00:46:19;29.10;;;21.83;;
62832;SDS011;48891;49.220;6.920;2023-12-22T00:48:44;27.67;;;20.08;;
62832;SDS011;48891;49.220;6.920;2023-12-22T00:51:10;26.10;;;20.73;;
62832;SDS011;48891;49.220;6.920;2023-12-22T00:53:35;30.90;;;21.40;;
62832;SDS011;48891;49.220;6.920;2023-12-22T00:56:00;30.27;;;22.48;;
62832;SDS011;48891;49.220;6.920;2023-12-22T00:58:26;28.40;;;22.38;;
62832;SDS011;48891;49.220;6.920;2023-12-22T01:00:51;24.75;;;19.40;;
62832;SDS011;48891;49.220;6.920;2023-12-22T01:03:16;26.42;;;20.75;;
62832;SDS011;48891;49.220;6.920;2023-12-22T01:05:41;26.13;;;20.20;;
62832;SDS011;48891;49.220;6.920;2023-12-22T01:08:07;29.40;;;21.38;;
62832;SDS011;48891;49.220;6.920;2023-12-22T01:10:32;27.08;;;20.73;;
62832;SDS011;48891;49.220;6.920;2023-12-22T01:12:57;29.15;;;21.77;;
62832;SDS011;48891;49.220;6.920;2023-12-22T01:15:22;28.23;;;21.17;;
62832;SDS011;48891;49.220;6.920;2023-12-22T01:17:48;30.20;;;21.58;;
62832;SDS011;48891;49.220;6.920;2023-12-22T01:20:13;29.70;;;20.60;;
62832;SDS011;48891;49.220;6.920;2023-12-22T01:22:38;28.83;;;20.95;;
62832;SDS011;48891;49.220;6.920;2023-12-22T01:25:04;28.45;;;20.95;;
62832;SDS011;48891;49.220;6.920;2023-12-22T01:27:29;30.67;;;21.98;;
62832;SDS011;48891;49.220;6.920;2023-12-22T01:29:55;30.48;;;22.63;;
62832;SDS011;48891;49.220;6.920;2023-12-22T01:32:20;27.52;;;20.58;;
62832;SDS011;48891;49.220;6.920;2023-12-22T01:34:45;26.90;;;20.80;;
62832;SDS011;48891;49.220;6.920;2023-12-22T01:37:10;28.65;;;21.35;;
62832;SDS011;48891;49.220;6.920;2023-12-22T01:39:35;27.58;;;20.70;;
62832;SDS011;48891;49.220;6.920;2023-12-22T01:42:01;29.80;;;20.55;;
62832;SDS011;48891;49.220;6.920;2023-12-22T01:44:26;25.65;;;20.15;;
62832;SDS011;48891;49.220;6.920;2023-12-22T01:46:51;27.45;;;20.25;;
62832;SDS011;48891;49.220;6.920;2023-12-22T01:49:17;30.00;;;21.60;;
62832;SDS011;48891;49.220;6.920;2023-12-22T01:51:42;28.48;;;20.88;;
62832;SDS011;48891;49.220;6.920;2023-12-22T01:54:08;28.58;;;21.35;;
62832;SDS011;48891;49.220;6.920;2023-12-22T01:56:35;29.15;;;20.27;;
62832;SDS011;48891;49.220;6.920;2023-12-22T01:59:01;27.52;;;20.88;;
62832;SDS011;48891;49.220;6.920;2023-12-22T02:01:27;28.40;;;21.35;;
62832;SDS011;48891;49.220;6.920;2023-12-22T02:03:53;27.85;;;21.05;;
62832;SDS011;48891;49.220;6.920;2023-12-22T02:06:19;29.60;;;20.67;;
62832;SDS011;48891;49.220;6.920;2023-12-22T02:08:48;26.00;;;20.40;;
62832;SDS011;48891;49.220;6.920;2023-12-22T02:11:14;26.95;;;20.80;;
62832;SDS011;48891;49.220;6.920;2023-12-22T02:13:40;28.25;;;21.45;;
62832;SDS011;48891;49.220;6.920;2023-12-22T02:16:10;26.05;;;19.70;;
62832;SDS011;48891;49.220;6.920;2023-12-22T02:18:43;28.45;;;20.45;;
62832;SDS011;48891;49.220;6.920;2023-12-22T02:21:12;27.38;;;19.60;;
62832;SDS011;48891;49.220;6.920;2023-12-22T02:23:37;28.73;;;19.77;;
62832;SDS011;48891;49.220;6.920;2023-12-22T02:26:06;27.10;;;20.98;;
62832;SDS011;48891;49.220;6.920;2023-12-22T02:28:36;24.30;;;19.10;;
62832;SDS011;48891;49.220;6.920;2023-12-22T02:31:16;23.95;;;19.02;;
62832;SDS011;48891;49.220;6.920;2023-12-22T02:33:47;25.88;;;19.63;;
62832;SDS011;48891;49.220;6.920;2023-12-22T02:36:14;27.90;;;20.38;;
62832;SDS011;48891;49.220;6.920;2023-12-22T02:38:42;26.45;;;19.85;;
62832;SDS011;48891;49.220;6.920;2023-12-22T02:41:08;28.17;;;20.20;;
62832;SDS011;48891;49.220;6.920;2023-12-22T02:43:33;27.30;;;20.60;;
62832;SDS011;48891;49.220;6.920;2023-12-22T02:45:59;26.23;;;19.98;;
62832;SDS011;48891;49.220;6.920;2023-12-22T02:48:24;25.70;;;20.83;;
62832;SDS011;48891;49.220;6.920;2023-12-22T02:50:49;24.13;;;19.90;;
62832;SDS011;48891;49.220;6.920;2023-12-22T02:53:14;27.08;;;20.35;;
62832;SDS011;48891;49.220;6.920;2023-12-22T02:55:40;23.15;;;18.92;;
62832;SDS011;48891;49.220;6.920;2023-12-22T02:58:05;29.00;;;21.02;;
62832;SDS011;48891;49.220;6.920;2023-12-22T03:00:30;24.58;;;19.75;;
62832;SDS011;48891;49.220;6.920;2023-12-22T03:02:55;26.95;;;19.15;;
62832;SDS011;48891;49.220;6.920;2023-12-22T03:05:21;27.70;;;20.42;;
62832;SDS011;48891;49.220;6.920;2023-12-22T03:07:46;26.50;;;19.60;;
62832;SDS011;48891;49.220;6.920;2023-12-22T03:10:11;25.70;;;19.23;;
62832;SDS011;48891;49.220;6.920;2023-12-22T03:12:36;25.95;;;19.17;;
62832;SDS011;48891;49.220;6.920;2023-12-22T03:15:02;27.02;;;20.38;;
62832;SDS011;48891;49.220;6.920;2023-12-22T03:17:28;26.77;;;19.98;;
62832;SDS011;48891;49.220;6.920;2023-12-22T03:19:53;26.60;;;19.48;;
62832;SDS011;48891;49.220;6.920;2023-12-22T03:22:18;27.65;;;20.23;;
62832;SDS011;48891;49.220;6.920;2023-12-22T03:24:43;28.20;;;20.63;;
62832;SDS011;48891;49.220;6.920;2023-12-22T03:27:09;26.70;;;19.80;;
62832;SDS011;48891;49.220;6.920;2023-12-22T03:29:34;24.73;;;19.48;;
62832;SDS011;48891;49.220;6.920;2023-12-22T03:31:59;26.02;;;20.23;;
62832;SDS011;48891;49.220;6.920;2023-12-22T03:34:24;26.50;;;19.63;;
62832;SDS011;48891;49.220;6.920;2023-12-22T03:36:49;29.27;;;20.95;;
62832;SDS011;48891;49.220;6.920;2023-12-22T03:39:15;25.67;;;19.80;;
62832;SDS011;48891;49.220;6.920;2023-12-22T03:41:40;27.65;;;18.92;;
62832;SDS011;48891;49.220;6.920;2023-12-22T03:44:06;26.25;;;20.25;;
62832;SDS011;48891;49.220;6.920;2023-12-22T03:46:31;27.27;;;20.20;;
62832;SDS011;48891;49.220;6.920;2023-12-22T03:48:56;25.52;;;20.08;;
62832;SDS011;48891;49.220;6.920;2023-12-22T03:51:22;24.25;;;19.50;;
62832;SDS011;48891;49.220;6.920;2023-12-22T03:53:47;26.67;;;18.75;;
62832;SDS011;48891;49.220;6.920;2023-12-22T03:56:12;25.35;;;18.75;;
62832;SDS011;48891;49.220;6.920;2023-12-22T03:58:37;26.75;;;19.73;;
62832;SDS011;48891;49.220;6.920;2023-12-22T04:01:03;29.25;;;20.45;;
62832;SDS011;48891;49.220;6.920;2023-12-22T04:03:28;25.92;;;18.80;;
62832;SDS011;48891;49.220;6.920;2023-12-22T04:05:54;29.42;;;20.15;;
62832;SDS011;48891;49.220;6.920;2023-12-22T04:08:19;29.15;;;20.02;;
62832;SDS011;48891;49.220;6.920;2023-12-22T04:10:44;26.95;;;20.85;;
62832;SDS011;48891;49.220;6.920;2023-12-22T04:13:10;24.25;;;19.92;;
62832;SDS011;48891;49.220;6.920;2023-12-22T04:15:35;26.75;;;19.55;;
62832;SDS011;48891;49.220;6.920;2023-12-22T04:18:00;27.20;;;20.60;;
62832;SDS011;48891;49.220;6.920;2023-12-22T04:20:25;24.02;;;18.67;;
62832;SDS011;48891;49.220;6.920;2023-12-22T04:22:51;29.35;;;20.98;;
62832;SDS011;48891;49.220;6.920;2023-12-22T04:25:16;27.58;;;20.65;;
62832;SDS011;48891;49.220;6.920;2023-12-22T04:27:41;25.83;;;20.10;;
62832;SDS011;48891;49.220;6.920;2023-12-22T04:30:06;25.17;;;19.98;;
62832;SDS011;48891;49.220;6.920;2023-12-22T04:32:32;26.88;;;20.23;;
62832;SDS011;48891;49.220;6.920;2023-12-22T04:34:57;26.75;;;20.02;;
62832;SDS011;48891;49.220;6.920;2023-12-22T04:37:23;25.67;;;19.80;;
62832;SDS011;48891;49.220;6.920;2023-12-22T04:39:48;28.50;;;18.73;;
62832;SDS011;48891;49.220;6.920;2023-12-22T04:42:13;26.83;;;19.92;;
62832;SDS011;48891;49.220;6.920;2023-12-22T04:44:38;27.52;;;20.25;;
62832;SDS011;48891;49.220;6.920;2023-12-22T04:47:04;29.27;;;20.70;;
62832;SDS011;48891;49.220;6.920;2023-12-22T04:49:29;28.05;;;20.33;;
62832;SDS011;48891;49.220;6.920;2023-12-22T04:51:54;28.05;;;19.17;;
62832;SDS011;48891;49.220;6.920;2023-12-22T04:54:20;24.20;;;19.17;;
62832;SDS011;48891;49.220;6.920;2023-12-22T04:56:45;25.50;;;20.42;;
62832;SDS011;48891;49.220;6.920;2023-12-22T04:59:10;25.77;;;19.00;;
62832;SDS011;48891;49.220;6.920;2023-12-22T05:01:35;24.90;;;19.13;;
62832;SDS011;48891;49.220;6.920;2023-12-22T05:04:01;26.45;;;19.45;;
62832;SDS011;48891;49.220;6.920;2023-12-22T05:06:26;24.83;;;18.77;;
62832;SDS011;48891;49.220;6.920;2023-12-22T05:08:51;25.38;;;18.48;;
62832;SDS011;48891;49.220;6.920;2023-12-22T05:11:16;27.60;;;19.42;;
62832;SDS011;48891;49.220;6.920;2023-12-22T05:13:41;26.85;;;20.98;;
62832;SDS011;48891;49.220;6.920;2023-12-22T05:16:07;24.73;;;18.48;;
62832;SDS011;48891;49.220;6.920;2023-12-22T05:18:32;24.70;;;18.15;;
62832;SDS011;48891;49.220;6.920;2023-12-22T05:20:57;26.20;;;19.13;;
62832;SDS011;48891;49.220;6.920;2023-12-22T05:23:22;25.42;;;17.90;;
62832;SDS011;48891;49.220;6.920;2023-12-22T05:25:48;28.30;;;18.88;;
62832;SDS011;48891;49.220;6.920;2023-12-22T05:28:13;25.27;;;18.70;;
62832;SDS011;48891;49.220;6.920;2023-12-22T05:30:38;23.52;;;18.20;;
62832;SDS011;48891;49.220;6.920;2023-12-22T05:33:03;29.40;;;19.67;;
62832;SDS011;48891;49.220;6.920;2023-12-22T05:35:29;27.40;;;19.05;;
62832;SDS011;48891;49.220;6.920;2023-12-22T05:37:54;25.55;;;18.05;;
62832;SDS011;48891;49.220;6.920;2023-12-22T05:40:19;24.33;;;18.35;;
62832;SDS011;48891;49.220;6.920;2023-12-22T05:42:44;26.75;;;19.33;;
62832;SDS011;48891;49.220;6.920;2023-12-22T05:45:10;27.15;;;19.10;;
62832;SDS011;48891;49.220;6.920;2023-12-22T05:47:35;27.00;;;18.85;;
62832;SDS011;48891;49.220;6.920;2023-12-22T05:50:00;26.27;;;18.15;;
62832;SDS011;48891;49.220;6.920;2023-12-22T05:52:25;25.08;;;18.40;;
62832;SDS011;48891;49.220;6.920;2023-12-22T05:54:51;26.77;;;19.92;;
62832;SDS011;48891;49.220;6.920;2023-12-22T05:57:16;26.30;;;17.10;;
62832;SDS011;48891;49.220;6.920;2023-12-22T05:59:41;26.75;;;18.85;;
62832;SDS011;48891;49.220;6.920;2023-12-22T06:02:06;22.95;;;17.70;;
62832;SDS011;48891;49.220;6.920;2023-12-22T06:04:32;23.48;;;16.40;;
62832;SDS011;48891;49.220;6.920;2023-12-22T06:06:57;24.80;;;17.75;;
62832;SDS011;48891;49.220;6.920;2023-12-22T06:09:22;25.75;;;18.38;;
62832;SDS011;48891;49.220;6.920;2023-12-22T06:11:48;25.05;;;17.23;;
62832;SDS011;48891;49.220;6.920;2023-12-22T06:14:13;23.25;;;17.20;;
62832;SDS011;48891;49.220;6.920;2023-12-22T06:16:39;24.80;;;17.98;;
62832;SDS011;48891;49.220;6.920;2023-12-22T06:19:04;24.15;;;17.27;;
62832;SDS011;48891;49.220;6.920;2023-12-22T06:21:29;23.23;;;17.23;;
62832;SDS011;48891;49.220;6.920;2023-12-22T06:23:54;23.55;;;17.30;;
62832;SDS011;48891;49.220;6.920;2023-12-22T06:26:20;21.85;;;16.30;;
62832;SDS011;48891;49.220;6.920;2023-12-22T06:28:45;24.02;;;16.80;;
62832;SDS011;48891;49.220;6.920;2023-12-22T06:31:20;21.75;;;15.95;;
62832;SDS011;48891;49.220;6.920;2023-12-22T06:33:46;21.88;;;16.50;;
62832;SDS011;48891;49.220;6.920;2023-12-22T06:36:21;24.40;;;16.65;;
62832;SDS011;48891;49.220;6.920;2023-12-22T06:38:47;21.92;;;16.58;;
62832;SDS011;48891;49.220;6.920;2023-12-22T06:41:22;21.92;;;16.92;;
62832;SDS011;48891;49.220;6.920;2023-12-22T06:43:50;24.05;;;17.05;;
62832;SDS011;48891;49.220;6.920;2023-12-22T06:46:16;22.15;;;16.85;;
62832;SDS011;48891;49.220;6.920;2023-12-22T06:48:42;20.20;;;15.98;;
62832;SDS011;48891;49.220;6.920;2023-12-22T06:51:16;21.88;;;16.55;;
62832;SDS011;48891;49.220;6.920;2023-12-22T06:53:51;21.77;;;16.23;;
62832;SDS011;48891;49.220;6.920;2023-12-22T06:56:21;23.23;;;16.08;;
62832;SDS011;48891;49.220;6.920;2023-12-22T06:58:48;21.63;;;15.82;;
62832;SDS011;48891;49.220;6.920;2023-12-22T07:01:21;21.27;;;15.52;;
62832;SDS011;48891;49.220;6.920;2023-12-22T07:03:48;22.67;;;16.02;;
62832;SDS011;48891;49.220;6.920;2023-12-22T07:06:17;22.35;;;15.48;;
62832;SDS011;48891;49.220;6.920;2023-12-22T07:08:43;21.30;;;15.15;;
62832;SDS011;48891;49.220;6.920;2023-12-22T07:11:09;20.55;;;14.80;;
62832;SDS011;48891;49.220;6.920;2023-12-22T07:13:35;20.08;;;14.13;;
62832;SDS011;48891;49.220;6.920;2023-12-22T07:16:01;24.95;;;14.52;;
62832;SDS011;48891;49.220;6.920;2023-12-22T07:18:26;21.67;;;14.55;;
62832;SDS011;48891;49.220;6.920;2023-12-22T07:20:51;21.58;;;14.95;;
62832;SDS011;48891;49.220;6.920;2023-12-22T07:23:16;21.50;;;14.80;;
62832;SDS011;48891;49.220;6.920;2023-12-22T07:25:42;19.70;;;15.20;;
62832;SDS011;48891;49.220;6.920;2023-12-22T07:28:07;21.08;;;14.77;;
62832;SDS011;48891;49.220;6.920;2023-12-22T07:30:32;18.75;;;14.63;;
62832;SDS011;48891;49.220;6.920;2023-12-22T07:32:57;19.77;;;14.48;;
62832;SDS011;48891;49.220;6.920;2023-12-22T07:35:23;20.02;;;14.82;;
62832;SDS011;48891;49.220;6.920;2023-12-22T07:37:48;22.25;;;13.95;;
62832;SDS011;48891;49.220;6.920;2023-12-22T07:40:13;18.95;;;13.88;;
62832;SDS011;48891;49.220;6.920;2023-12-22T07:42:39;19.17;;;13.15;;
62832;SDS011;48891;49.220;6.920;2023-12-22T07:45:04;17.25;;;13.40;;
62832;SDS011;48891;49.220;6.920;2023-12-22T07:47:30;20.88;;;13.88;;
62832;SDS011;48891;49.220;6.920;2023-12-22T07:49:56;19.50;;;14.00;;
62832;SDS011;48891;49.220;6.920;2023-12-22T07:52:21;20.23;;;13.07;;
62832;SDS011;48891;49.220;6.920;2023-12-22T07:54:46;22.10;;;14.32;;
62832;SDS011;48891;49.220;6.920;2023-12-22T07:57:12;19.35;;;12.82;;
62832;SDS011;48891;49.220;6.920;2023-12-22T07:59:37;21.20;;;13.48;;
62832;SDS011;48891;49.220;6.920;2023-12-22T08:02:02;20.38;;;13.20;;
62832;SDS011;48891;49.220;6.920;2023-12-22T08:04:28;21.05;;;13.23;;
62832;SDS011;48891;49.220;6.920;2023-12-22T08:06:53;18.83;;;12.00;;
62832;SDS011;48891;49.220;6.920;2023-12-22T08:09:18;21.33;;;13.13;;
62832;SDS011;48891;49.220;6.920;2023-12-22T08:11:43;17.67;;;12.05;;
62832;SDS011;48891;49.220;6.920;2023-12-22T08:14:09;18.42;;;12.07;;
62832;SDS011;48891;49.220;6.920;2023-12-22T08:16:34;17.52;;;11.90;;
62832;SDS011;48891;49.220;6.920;2023-12-22T08:18:59;16.67;;;12.27;;
62832;SDS011;48891;49.220;6.920;2023-12-22T08:21:24;19.20;;;12.27;;
62832;SDS011;48891;49.220;6.920;2023-12-22T08:23:49;15.43;;;11.40;;
62832;SDS011;48891;49.220;6.920;2023-12-22T08:26:15;17.23;;;11.60;;
62832;SDS011;48891;49.220;6.920;2023-12-22T08:28:40;16.00;;;11.30;;
62832;SDS011;48891;49.220;6.920;2023-12-22T08:31:05;19.63;;;11.60;;
62832;SDS011;48891;49.220;6.920;2023-12-22T08:33:30;19.10;;;12.30;;
62832;SDS011;48891;49.220;6.920;2023-12-22T08:35:56;17.25;;;11.45;;
62832;SDS011;48891;49.220;6.920;2023-12-22T08:38:21;17.67;;;10.95;;
62832;SDS011;48891;49.220;6.920;2023-12-22T08:40:46;16.20;;;11.18;;
62832;SDS011;48891;49.220;6.920;2023-12-22T08:43:11;19.15;;;11.73;;
62832;SDS011;48891;49.220;6.920;2023-12-22T08:45:37;18.00;;;11.70;;
62832;SDS011;48891;49.220;6.920;2023-12-22T08:48:02;17.58;;;11.88;;
62832;SDS011;48891;49.220;6.920;2023-12-22T08:50:28;16.15;;;10.85;;
62832;SDS011;48891;49.220;6.920;2023-12-22T08:52:53;15.60;;;11.02;;
62832;SDS011;48891;49.220;6.920;2023-12-22T08:55:18;15.93;;;10.48;;
62832;SDS011;48891;49.220;6.920;2023-12-22T08:57:43;16.83;;;10.68;;
62832;SDS011;48891;49.220;6.920;2023-12-22T09:00:09;15.15;;;10.48;;
62832;SDS011;48891;49.220;6.920;2023-12-22T09:02:34;15.57;;;10.07;;
62832;SDS011;48891;49.220;6.920;2023-12-22T09:05:00;14.25;;;10.38;;
62832;SDS011;48891;49.220;6.920;2023-12-22T09:07:25;15.35;;;10.65;;
62832;SDS011;48891;49.220;6.920;2023-12-22T09:09:50;14.95;;;10.27;;
62832;SDS011;48891;49.220;6.920;2023-12-22T09:12:15;19.30;;;10.80;;
62832;SDS011;48891;49.220;6.920;2023-12-22T09:14:41;18.33;;;10.63;;
62832;SDS011;48891;49.220;6.920;2023-12-22T09:17:06;15.27;;;9.98;;
62832;SDS011;48891;49.220;6.920;2023-12-22T09:19:34;18.33;;;10.88;;
62832;SDS011;48891;49.220;6.920;2023-12-22T09:21:59;14.55;;;10.15;;
62832;SDS011;48891;49.220;6.920;2023-12-22T09:24:24;13.68;;;9.77;;
62832;SDS011;48891;49.220;6.920;2023-12-22T09:26:50;13.95;;;9.82;;
62832;SDS011;48891;49.220;6.920;2023-12-22T09:29:15;14.20;;;9.60;;
62832;SDS011;48891;49.220;6.920;2023-12-22T09:31:40;13.75;;;9.02;;
62832;SDS011;48891;49.220;6.920;2023-12-22T09:34:06;17.83;;;10.77;;
62832;SDS011;48891;49.220;6.920;2023-12-22T09:36:31;17.75;;;10.13;;
62832;SDS011;48891;49.220;6.920;2023-12-22T09:38:56;16.40;;;10.52;;
62832;SDS011;48891;49.220;6.920;2023-12-22T09:41:21;16.40;;;9.75;;
62832;SDS011;48891;49.220;6.920;2023-12-22T09:43:47;14.98;;;9.52;;
62832;SDS011;48891;49.220;6.920;2023-12-22T09:46:14;16.38;;;9.68;;
62832;SDS011;48891;49.220;6.920;2023-12-22T09:48:41;13.48;;;8.77;;
62832;SDS011;48891;49.220;6.920;2023-12-22T09:51:07;11.73;;;8.38;;
62832;SDS011;48891;49.220;6.920;2023-12-22T09:53:33;14.02;;;9.75;;
62832;SDS011;48891;49.220;6.920;2023-12-22T09:56:02;15.80;;;9.00;;
62832;SDS011;48891;49.220;6.920;2023-12-22T09:58:28;13.93;;;8.85;;
62832;SDS011;48891;49.220;6.920;2023-12-22T10:00:54;14.05;;;8.30;;
62832;SDS011;48891;49.220;6.920;2023-12-22T10:03:20;13.45;;;7.93;;
62832;SDS011;48891;49.220;6.920;2023-12-22T10:05:47;15.50;;;8.73;;
62832;SDS011;48891;49.220;6.920;2023-12-22T10:08:12;12.75;;;8.60;;
62832;SDS011;48891;49.220;6.920;2023-12-22T10:10:39;13.98;;;8.07;;
62832;SDS011;48891;49.220;6.920;2023-12-22T10:13:04;12.05;;;8.45;;
62832;SDS011;48891;49.220;6.920;2023-12-22T10:15:30;12.52;;;8.27;;
62832;SDS011;48891;49.220;6.920;2023-12-22T10:17:55;14.00;;;8.00;;
62832;SDS011;48891;49.220;6.920;2023-12-22T10:20:21;11.50;;;7.90;;
62832;SDS011;48891;49.220;6.920;2023-12-22T10:22:46;13.98;;;7.78;;
62832;SDS011;48891;49.220;6.920;2023-12-22T10:25:14;12.65;;;7.95;;
62832;SDS011;48891;49.220;6.920;2023-12-22T10:27:41;12.85;;;8.02;;
62832;SDS011;48891;49.220;6.920;2023-12-22T10:30:07;9.63;;;7.25;;
62832;SDS011;48891;49.220;6.920;2023-12-22T10:32:34;13.35;;;7.85;;
62832;SDS011;48891;49.220;6.920;2023-12-22T10:35:05;11.40;;;7.85;;
62832;SDS011;48891;49.220;6.920;2023-12-22T10:37:31;12.57;;;7.13;;
62832;SDS011;48891;49.220;6.920;2023-12-22T10:39:57;12.98;;;7.35;;
62832;SDS011;48891;49.220;6.920;2023-12-22T10:42:23;12.27;;;7.60;;
62832;SDS011;48891;49.220;6.920;2023-12-22T10:44:49;10.88;;;7.60;;
62832;SDS011;48891;49.220;6.920;2023-12-22T10:47:14;10.90;;;6.93;;
62832;SDS011;48891;49.220;6.920;2023-12-22T10:49:39;12.65;;;7.38;;
62832;SDS011;48891;49.220;6.920;2023-12-22T10:52:04;11.25;;;7.03;;
62832;SDS011;48891;49.220;6.920;2023-12-22T10:54:30;13.43;;;7.40;;
62832;SDS011;48891;49.220;6.920;2023-12-22T10:56:58;10.70;;;7.25;;
62832;SDS011;48891;49.220;6.920;2023-12-22T11:01:52;10.15;;;6.88;;
62832;SDS011;48891;49.220;6.920;2023-12-22T11:06:49;10.38;;;6.78;;
62832;SDS011;48891;49.220;6.920;2023-12-22T11:09:16;10.02;;;6.05;;
62832;SDS011;48891;49.220;6.920;2023-12-22T11:11:45;9.57;;;6.50;;
62832;SDS011;48891;49.220;6.920;2023-12-22T11:14:11;9.55;;;6.68;;
62832;SDS011;48891;49.220;6.920;2023-12-22T11:16:38;11.25;;;6.90;;
62832;SDS011;48891;49.220;6.920;2023-12-22T11:19:07;7.75;;;5.80;;
62832;SDS011;48891;49.220;6.920;2023-12-22T11:21:34;9.95;;;7.00;;
62832;SDS011;48891;49.220;6.920;2023-12-22T11:24:01;11.13;;;6.40;;
62832;SDS011;48891;49.220;6.920;2023-12-22T11:26:28;9.50;;;6.55;;
62832;SDS011;48891;49.220;6.920;2023-12-22T11:28:54;11.23;;;6.90;;
62832;SDS011;48891;49.220;6.920;2023-12-22T11:31:20;11.18;;;6.30;;
62832;SDS011;48891;49.220;6.920;2023-12-22T11:33:49;11.68;;;6.82;;
62832;SDS011;48891;49.220;6.920;2023-12-22T11:36:16;12.13;;;6.95;;
62832;SDS011;48891;49.220;6.920;2023-12-22T11:38:44;8.48;;;6.32;;
62832;SDS011;48891;49.220;6.920;2023-12-22T11:41:20;11.15;;;6.60;;
62832;SDS011;48891;49.220;6.920;2023-12-22T11:43:50;9.48;;;6.80;;
62832;SDS011;48891;49.220;6.920;2023-12-22T11:46:16;10.73;;;7.07;;
62832;SDS011;48891;49.220;6.920;2023-12-22T11:48:46;10.25;;;7.47;;
62832;SDS011;48891;49.220;6.920;2023-12-22T11:51:13;9.90;;;7.00;;
62832;SDS011;48891;49.220;6.920;2023-12-22T11:53:38;11.07;;;6.80;;
62832;SDS011;48891;49.220;6.920;2023-12-22T11:58:33;10.98;;;7.18;;
62832;SDS011;48891;49.220;6.920;2023-12-22T12:01:12;11.13;;;7.43;;
62832;SDS011;48891;49.220;6.920;2023-12-22T12:03:40;9.40;;;7.20;;
62832;SDS011;48891;49.220;6.920;2023-12-22T12:08:51;9.52;;;7.03;;
62832;SDS011;48891;49.220;6.920;2023-12-22T12:11:17;11.63;;;8.18;;
62832;SDS011;48891;49.220;6.920;2023-12-22T12:13:43;10.40;;;7.30;;
62832;SDS011;48891;49.220;6.920;2023-12-22T12:16:09;9.80;;;7.28;;
62832;SDS011;48891;49.220;6.920;2023-12-22T12:18:38;10.43;;;7.50;;
62832;SDS011;48891;49.220;6.920;2023-12-22T12:21:05;11.27;;;7.72;;
62832;SDS011;48891;49.220;6.920;2023-12-22T12:23:32;10.05;;;7.25;;
62832;SDS011;48891;49.220;6.920;2023-12-22T12:25:57;11.07;;;7.72;;
62832;SDS011;48891;49.220;6.920;2023-12-22T12:28:26;11.43;;;7.97;;
62832;SDS011;48891;49.220;6.920;2023-12-22T12:31:00;11.65;;;8.32;;
62832;SDS011;48891;49.220;6.920;2023-12-22T12:33:28;10.50;;;8.45;;
62832;SDS011;48891;49.220;6.920;2023-12-22T12:35:55;9.95;;;7.72;;
62832;SDS011;48891;49.220;6.920;2023-12-22T12:38:23;10.10;;;8.57;;
62832;SDS011;48891;49.220;6.920;2023-12-22T12:41:00;11.00;;;7.80;;
62832;SDS011;48891;49.220;6.920;2023-12-22T12:43:29;12.40;;;7.80;;
62832;SDS011;48891;49.220;6.920;2023-12-22T12:45:54;10.32;;;8.00;;
62832;SDS011;48891;49.220;6.920;2023-12-22T12:48:19;12.07;;;8.82;;
62832;SDS011;48891;49.220;6.920;2023-12-22T12:50:46;10.77;;;8.15;;
62832;SDS011;48891;49.220;6.920;2023-12-22T12:53:11;10.05;;;8.40;;
62832;SDS011;48891;49.220;6.920;2023-12-22T12:55:36;10.60;;;8.05;;
62832;SDS011;48891;49.220;6.920;2023-12-22T12:58:02;11.63;;;8.80;;
62832;SDS011;48891;49.220;6.920;2023-12-22T13:00:29;12.70;;;8.38;;
62832;SDS011;48891;49.220;6.920;2023-12-22T13:03:04;13.25;;;9.15;;
62832;SDS011;48891;49.220;6.920;2023-12-22T13:05:30;12.98;;;9.10;;
62832;SDS011;48891;49.220;6.920;2023-12-22T13:08:12;11.57;;;8.75;;
62832;SDS011;48891;49.220;6.920;2023-12-22T13:10:38;10.07;;;8.43;;
62832;SDS011;48891;49.220;6.920;2023-12-22T13:13:04;12.57;;;8.60;;
62832;SDS011;48891;49.220;6.920;2023-12-22T13:15:30;13.63;;;8.73;;
62832;SDS011;48891;49.220;6.920;2023-12-22T13:17:55;12.10;;;8.40;;
62832;SDS011;48891;49.220;6.920;2023-12-22T13:20:21;11.68;;;8.98;;
62832;SDS011;48891;49.220;6.920;2023-12-22T13:22:47;11.50;;;8.43;;
62832;SDS011;48891;49.220;6.920;2023-12-22T13:25:12;10.65;;;8.00;;
62832;SDS011;48891;49.220;6.920;2023-12-22T13:27:47;10.48;;;8.05;;
62832;SDS011;48891;49.220;6.920;2023-12-22T13:30:35;10.35;;;8.52;;
62832;SDS011;48891;49.220;6.920;2023-12-22T13:33:02;11.02;;;7.70;;
62832;SDS011;48891;49.220;6.920;2023-12-22T13:35:28;11.40;;;8.05;;
62832;SDS011;48891;49.220;6.920;2023-12-22T13:37:53;11.48;;;9.13;;
62832;SDS011;48891;49.220;6.920;2023-12-22T13:40:19;11.63;;;8.70;;
62832;SDS011;48891;49.220;6.920;2023-12-22T13:42:52;11.60;;;8.55;;
62832;SDS011;48891;49.220;6.920;2023-12-22T13:45:19;10.98;;;8.25;;
62832;SDS011;48891;49.220;6.920;2023-12-22T13:47:44;13.30;;;8.80;;
62832;SDS011;48891;49.220;6.920;2023-12-22T13:50:13;12.50;;;8.50;;
62832;SDS011;48891;49.220;6.920;2023-12-22T13:52:39;12.85;;;8.10;;
62832;SDS011;48891;49.220;6.920;2023-12-22T13:57:36;11.18;;;8.32;;
62832;SDS011;48891;49.220;6.920;2023-12-22T14:00:01;9.48;;;8.07;;
62832;SDS011;48891;49.220;6.920;2023-12-22T14:02:27;11.43;;;8.68;;
62832;SDS011;48891;49.220;6.920;2023-12-22T14:04:53;11.60;;;7.97;;
62832;SDS011;48891;49.220;6.920;2023-12-22T14:07:18;10.23;;;7.60;;
62832;SDS011;48891;49.220;6.920;2023-12-22T14:09:44;10.13;;;7.60;;
62832;SDS011;48891;49.220;6.920;2023-12-22T14:12:09;10.50;;;8.10;;
62832;SDS011;48891;49.220;6.920;2023-12-22T14:14:34;11.35;;;7.97;;
62832;SDS011;48891;49.220;6.920;2023-12-22T14:16:59;11.93;;;8.70;;
62832;SDS011;48891;49.220;6.920;2023-12-22T14:19:25;12.60;;;8.35;;
62832;SDS011;48891;49.220;6.920;2023-12-22T14:21:50;10.52;;;7.90;;
62832;SDS011;48891;49.220;6.920;2023-12-22T14:24:15;11.35;;;8.48;;
62832;SDS011;48891;49.220;6.920;2023-12-22T14:26:56;10.27;;;7.90;;
62832;SDS011;48891;49.220;6.920;2023-12-22T14:29:22;12.77;;;7.85;;
62832;SDS011;48891;49.220;6.920;2023-12-22T14:31:48;10.80;;;8.02;;